Time;durP1;ratioP1;P1;durP2;ratioP2;P2;SDS_P1;SDS_P2;PMS_P1;PMS_P2;Temp;Humidity;BMP_temperature;BMP_pressure;BME280_temperature;BME280_humidity;BME280_pressure;Samples;Min_cycle;Max_cycle;Signal;HPM_P1;HPM_P2
2023/12/01 00:02:12;;;;;;;;;;;;;;;2.63;92.93;97570.13;7237032;40;19997;31
2023/12/01 00:07:30;;;;;;;;;;;;;;;2.67;92.17;97574.16;7228295;40;20109;31
2023/12/01 00:13:06;;;;;;;;;;;;;;;2.66;91.45;97576.97;7277979;40;20262;31
2023/12/01 00:18:26;;;;;;;;;;;;;;;2.69;92.75;97574.81;7249635;40;20116;31
2023/12/01 00:29:06;;;;;;;;;;;;;;;2.71;92.32;97598.59;7282656;39;20567;31
2023/12/01 00:39:29;;;;;;;;;;;;;;;2.69;91.86;97582.78;7243366;40;20012;31
2023/12/01 00:45:02;;;;;;;;;;;;;;;2.67;92.69;97581.31;7219490;40;20064;31
2023/12/01 00:50:23;;;;;;;;;;;;;;;2.67;91.56;97587.47;7243430;40;19992;31
2023/12/01 00:55:43;;;;;;;;;;;;;;;2.67;92.70;97595.44;7263038;40;20455;31
2023/12/01 01:01:19;;;;;;;;;;;;;;;2.70;92.82;97588.94;7276128;39;19992;31
2023/12/01 01:06:40;;;;;;;;;;;;;;;2.63;92.66;97579.94;7246512;40;20025;31
2023/12/01 01:12:01;;;;;;;;;;;;;;;2.62;92.30;97615.50;7257108;40;20538;31
2023/12/01 01:17:36;;;;;;;;;;;;;;;2.69;92.93;97587.28;7256689;40;20704;31
2023/12/01 01:28:01;;;;;;;;;;;;;;;2.79;92.49;97603.13;7291776;39;20258;31
2023/12/01 01:33:38;;;;;;;;;;;;;;;2.70;92.90;97623.53;7291126;39;20467;31
2023/12/01 01:44:03;;;;;;;;;;;;;;;2.67;93.00;97651.28;7314421;39;20538;31
2023/12/01 01:49:39;;;;;;;;;;;;;;;2.72;93.46;97646.31;7283063;40;20471;31
2023/12/01 02:00:06;;;;;;;;;;;;;;;2.75;93.32;97652.31;7257785;40;20294;31
2023/12/01 02:10:46;;;;;;;;;;;;;;;2.77;93.34;97650.31;7292109;39;19991;31
2023/12/01 02:16:04;;;;;;;;;;;;;;;2.76;93.08;97638.03;7337016;39;20125;31
2023/12/01 02:21:40;;;;;;;;;;;;;;;2.68;93.14;97638.78;7296881;40;19996;31
2023/12/01 02:27:16;;;;;;;;;;;;;;;2.63;93.28;97639.25;7278704;40;20526;31
2023/12/01 02:32:34;;;;;;;;;;;;;;;2.64;92.95;97651.56;7236739;40;19993;31
2023/12/01 02:37:54;;;;;;;;;;;;;;;2.66;92.48;97654.94;7260419;40;20070;31
2023/12/01 02:43:30;;;;;;;;;;;;;;;2.75;93.47;97649.66;7248138;40;21758;31
2023/12/01 02:49:03;;;;;;;;;;;;;;;2.78;92.92;97652.84;7248267;39;20067;31
2023/12/01 02:54:20;;;;;;;;;;;;;;;2.78;93.51;97666.16;7221203;40;20467;31
2023/12/01 02:59:57;;;;;;;;;;;;;;;2.79;91.87;97651.03;7223595;40;20021;31
2023/12/01 03:05:32;;;;;;;;;;;;;;;2.81;92.56;97651.72;7214803;40;20004;31
2023/12/01 03:16:11;;;;;;;;;;;;;;;2.78;93.00;97652.00;7260381;40;19992;31
2023/12/01 03:26:35;;;;;;;;;;;;;;;2.75;92.70;97657.66;7260496;40;20579;31
2023/12/01 03:32:11;;;;;;;;;;;;;;;2.72;93.86;97650.81;7281573;39;20442;31
2023/12/01 03:37:32;;;;;;;;;;;;;;;2.65;94.05;97647.94;7289120;40;19996;31
2023/12/01 03:43:07;;;;;;;;;;;;;;;2.60;93.25;97671.50;7279197;40;20174;31
2023/12/01 03:48:40;;;;;;;;;;;;;;;2.59;93.41;97671.66;7055266;40;20000;31
2023/12/01 03:54:01;;;;;;;;;;;;;;;2.52;93.72;97663.47;7210434;40;19994;31
2023/12/01 03:59:20;;;;;;;;;;;;;;;2.50;93.71;97644.16;7225927;40;20439;31
2023/12/01 04:04:57;;;;;;;;;;;;;;;2.48;95.32;97640.81;7226820;40;19994;31
2023/12/01 04:10:33;;;;;;;;;;;;;;;2.51;95.29;97659.13;7226449;39;20075;31
2023/12/01 04:15:55;;;;;;;;;;;;;;;2.52;95.76;97660.81;7238696;40;19993;31
2023/12/01 04:21:30;;;;;;;;;;;;;;;2.50;95.11;97641.50;7224784;40;19993;31
2023/12/01 04:32:10;;;;;;;;;;;;;;;2.45;95.69;97645.63;7238159;40;20530;31
2023/12/01 04:37:46;;;;;;;;;;;;;;;2.45;95.87;97637.66;7229245;40;19993;31
2023/12/01 04:43:08;;;;;;;;;;;;;;;2.43;95.48;97640.44;7228580;40;19997;31
2023/12/01 04:48:27;;;;;;;;;;;;;;;2.35;95.60;97640.41;7241237;40;19993;31
2023/12/01 04:54:04;;;;;;;;;;;;;;;2.37;96.12;97635.75;7288939;39;20013;31
2023/12/01 04:59:25;;;;;;;;;;;;;;;2.38;96.90;97634.75;7289782;39;19991;31
2023/12/01 05:04:47;;;;;;;;;;;;;;;2.33;96.46;97663.63;7272443;39;19992;31
2023/12/01 05:10:22;;;;;;;;;;;;;;;2.34;96.00;97659.97;7285801;39;20587;31
2023/12/01 05:15:40;;;;;;;;;;;;;;;2.37;96.11;97683.59;7277806;40;19992;31
2023/12/01 05:21:00;;;;;;;;;;;;;;;2.41;96.70;97678.81;7285596;39;19992;31
2023/12/01 05:26:34;;;;;;;;;;;;;;;2.37;96.37;97672.97;7280572;39;20094;31
2023/12/01 05:31:50;;;;;;;;;;;;;;;2.35;96.24;97669.63;7249263;39;20114;31
2023/12/01 05:37:25;;;;;;;;;;;;;;;2.34;96.27;97678.59;7259496;40;20009;31
2023/12/01 05:48:03;;;;;;;;;;;;;;;2.39;96.83;97700.25;7227637;40;20555;31
2023/12/01 05:58:25;;;;;;;;;;;;;;;2.31;97.37;97726.75;7307410;39;20577;31
2023/12/01 06:09:07;;;;;;;;;;;;;;;2.38;96.05;97711.00;7301444;39;20102;31
2023/12/01 06:19:47;;;;;;;;;;;;;;;2.34;97.25;97726.44;7274259;39;20004;31
2023/12/01 06:30:26;;;;;;;;;;;;;;;2.37;96.26;97733.28;7253662;39;20538;31
2023/12/01 06:35:46;;;;;;;;;;;;;;;2.40;95.95;97754.25;7275829;40;20558;31
2023/12/01 06:41:06;;;;;;;;;;;;;;;2.42;95.98;97755.75;7262408;40;20471;31
2023/12/01 06:46:43;;;;;;;;;;;;;;;2.41;97.13;97774.53;7257658;40;20516;31
2023/12/01 06:52:04;;;;;;;;;;;;;;;2.43;95.69;97752.13;7207630;40;20084;31
2023/12/01 07:02:45;;;;;;;;;;;;;;;2.34;96.29;97782.25;7217678;40;20009;31
2023/12/01 07:08:19;;;;;;;;;;;;;;;2.28;95.56;97777.56;7257699;39;20090;31
2023/12/01 07:13:38;;;;;;;;;;;;;;;2.25;96.63;97776.03;7298982;39;20475;31
2023/12/01 07:19:16;;;;;;;;;;;;;;;2.29;95.78;97779.22;7317247;39;20006;31
2023/12/01 07:24:52;;;;;;;;;;;;;;;2.24;95.64;97781.47;7248652;39;19997;31
2023/12/01 07:30:11;;;;;;;;;;;;;;;2.25;95.40;97786.66;7216081;40;20103;31
2023/12/01 07:35:45;;;;;;;;;;;;;;;2.27;95.91;97794.50;7242374;40;19993;31
2023/12/01 07:41:21;;;;;;;;;;;;;;;2.28;94.96;97782.87;7211850;40;20681;31
2023/12/01 07:46:41;;;;;;;;;;;;;;;2.28;95.61;97780.22;7190558;40;20460;31
2023/12/01 07:52:14;;;;;;;;;;;;;;;2.27;94.37;97781.19;7171298;40;20461;31
2023/12/01 07:57:49;;;;;;;;;;;;;;;2.27;95.09;97781.19;7197551;40;20528;31
2023/12/01 08:03:21;;;;;;;;;;;;;;;2.30;93.98;97786.22;7215480;40;20456;31
2023/12/01 08:08:54;;;;;;;;;;;;;;;2.30;93.38;97785.38;7221585;40;20004;31
2023/12/01 08:14:14;;;;;;;;;;;;;;;2.30;94.36;97817.25;7233095;40;19993;31
2023/12/01 08:19:46;;;;;;;;;;;;;;;2.35;93.71;97815.84;7211872;40;20102;31
2023/12/01 08:25:21;;;;;;;;;;;;;;;2.31;93.50;97795.03;7190787;40;20028;31
2023/12/01 08:35:42;;;;;;;;;;;;;;;2.38;93.21;97809.38;7163549;40;20526;31
2023/12/01 08:41:20;;;;;;;;;;;;;;;2.38;93.45;97799.59;7243903;40;19996;31
2023/12/01 08:46:40;;;;;;;;;;;;;;;2.36;94.39;97814.03;7257656;39;20531;31
2023/12/01 08:52:15;;;;;;;;;;;;;;;2.38;93.04;97812.87;7277679;39;19993;31
2023/12/01 08:57:48;;;;;;;;;;;;;;;2.38;93.21;97818.19;7216081;40;20542;31
2023/12/01 09:03:23;;;;;;;;;;;;;;;2.39;93.60;97797.75;7186486;40;20484;31
2023/12/01 09:08:44;;;;;;;;;;;;;;;2.37;94.05;97808.53;7162293;40;21232;31
2023/12/01 09:14:21;;;;;;;;;;;;;;;2.40;93.07;97802.09;7137897;40;20167;31
2023/12/01 09:19:39;;;;;;;;;;;;;;;2.41;93.54;97807.28;7143676;40;20006;31
2023/12/01 09:24:58;;;;;;;;;;;;;;;2.43;94.06;97807.94;7244605;39;20004;31
2023/12/01 09:30:36;;;;;;;;;;;;;;;2.40;93.21;97807.41;7314687;39;20506;31
2023/12/01 09:36:11;;;;;;;;;;;;;;;2.34;93.17;97823.94;7267905;40;20004;31
2023/12/01 09:41:46;;;;;;;;;;;;;;;2.39;93.46;97822.53;7218602;40;21819;31
2023/12/01 09:47:23;;;;;;;;;;;;;;;2.41;93.51;97841.84;7227487;40;20491;31
2023/12/01 09:52:59;;;;;;;;;;;;;;;2.42;94.62;97840.84;7205413;40;20005;31
2023/12/01 09:58:20;;;;;;;;;;;;;;;2.48;93.58;97831.44;7172107;40;20072;31
2023/12/01 10:03:56;;;;;;;;;;;;;;;2.49;93.34;97823.31;7202371;40;20527;31
2023/12/01 10:09:40;;;;;;;;;;;;;;;2.45;92.87;97821.09;7216590;40;20013;31
2023/12/01 10:15:15;;;;;;;;;;;;;;;2.43;93.00;97821.25;7227607;40;20042;31
2023/12/01 10:20:52;;;;;;;;;;;;;;;2.48;93.98;97811.00;7242359;40;20654;31
2023/12/01 10:26:27;;;;;;;;;;;;;;;2.47;92.61;97792.53;7194031;40;20624;31
2023/12/01 10:32:03;;;;;;;;;;;;;;;2.49;93.53;97810.03;7149452;40;20572;31
2023/12/01 10:37:39;;;;;;;;;;;;;;;2.51;92.49;97808.03;7165541;40;20548;31
2023/12/01 10:42:59;;;;;;;;;;;;;;;2.52;92.45;97801.72;7203311;40;19993;31
2023/12/01 10:48:32;;;;;;;;;;;;;;;2.54;93.30;97805.09;7264752;40;20444;31
2023/12/01 10:54:08;;;;;;;;;;;;;;;2.54;92.64;97801.59;7282111;39;20604;31
2023/12/01 10:59:41;;;;;;;;;;;;;;;2.53;92.65;97816.72;7038234;40;20938;31
2023/12/01 11:05:14;;;;;;;;;;;;;;;2.53;92.14;97791.94;7238636;40;20008;31
2023/12/01 11:10:51;;;;;;;;;;;;;;;2.56;92.91;97786.31;7215614;40;20099;31
2023/12/01 11:16:23;;;;;;;;;;;;;;;2.55;93.34;97769.50;7175148;40;20012;31
2023/12/01 11:21:42;;;;;;;;;;;;;;;2.54;92.07;97769.69;7121620;41;19999;31
2023/12/01 11:27:19;;;;;;;;;;;;;;;2.55;92.55;97764.19;7061713;41;20020;31
2023/12/01 11:32:53;;;;;;;;;;;;;;;2.60;92.38;97771.72;7163834;40;20460;31
2023/12/01 11:38:26;;;;;;;;;;;;;;;2.61;93.33;97765.41;7245685;40;20109;31
2023/12/01 11:44:13;;;;;;;;;;;;;;;2.57;91.98;97775.53;7240887;40;20459;31
2023/12/01 11:49:49;;;;;;;;;;;;;;;2.59;92.91;97786.84;7225389;40;20079;31
2023/12/01 11:55:30;;;;;;;;;;;;;;;2.58;93.03;97789.66;7187845;40;19994;31
2023/12/01 12:01:07;;;;;;;;;;;;;;;2.61;93.06;97808.81;7221071;40;20090;31
2023/12/01 12:06:27;;;;;;;;;;;;;;;2.61;93.17;97821.25;7230075;40;20457;31
2023/12/01 12:12:04;;;;;;;;;;;;;;;2.53;91.48;97821.19;7245743;40;20437;31
2023/12/01 12:17:39;;;;;;;;;;;;;;;2.48;92.81;97824.28;7254531;40;20645;31
2023/12/01 12:22:59;;;;;;;;;;;;;;;2.51;92.00;97839.09;7198663;40;20609;31
2023/12/01 12:28:34;;;;;;;;;;;;;;;2.44;91.79;97844.19;7188634;40;20541;31
2023/12/01 12:34:09;;;;;;;;;;;;;;;2.42;93.10;97837.34;7217784;40;20167;31
2023/12/01 12:39:30;;;;;;;;;;;;;;;2.41;92.84;97803.78;7216737;40;20593;31
2023/12/01 12:45:06;;;;;;;;;;;;;;;2.42;91.81;97800.09;7198937;40;20357;31
2023/12/01 12:50:43;;;;;;;;;;;;;;;2.41;92.57;97794.00;7186242;40;19994;31
2023/12/01 12:56:24;;;;;;;;;;;;;;;2.39;91.65;97787.12;7216591;40;19993;31
2023/12/01 13:01:45;;;;;;;;;;;;;;;2.38;92.03;97778.31;7259469;39;19997;31
2023/12/01 13:07:19;;;;;;;;;;;;;;;2.39;92.05;97785.31;7257094;40;20503;31
2023/12/01 13:12:55;;;;;;;;;;;;;;;2.34;91.85;97794.72;7206902;40;20005;31
2023/12/01 13:18:16;;;;;;;;;;;;;;;2.32;93.28;97802.03;7185563;40;20005;31
2023/12/01 13:23:52;;;;;;;;;;;;;;;2.36;92.27;97806.06;7225707;40;20023;31
2023/12/01 13:29:13;;;;;;;;;;;;;;;2.38;92.84;97798.75;7208764;40;19993;31
2023/12/01 13:34:33;;;;;;;;;;;;;;;2.39;91.52;97798.59;7218904;40;20503;31
2023/12/01 13:45:14;;;;;;;;;;;;;;;2.37;91.62;97789.94;7228857;40;20499;31
2023/12/01 13:55:39;;;;;;;;;;;;;;;2.35;91.90;97796.41;7289575;39;20537;31
2023/12/01 14:06:18;;;;;;;;;;;;;;;2.41;92.66;97796.66;7291359;39;20023;31
2023/12/01 14:16:43;;;;;;;;;;;;;;;2.38;91.24;97794.25;7325494;39;20026;31
2023/12/01 14:27:22;;;;;;;;;;;;;;;2.36;91.78;97804.22;7333736;39;20694;31
2023/12/01 14:32:42;;;;;;;;;;;;;;;2.33;92.02;97816.97;7298037;40;22393;31
2023/12/01 14:38:02;;;;;;;;;;;;;;;2.29;91.23;97829.72;7296375;39;21693;31
2023/12/01 14:43:36;;;;;;;;;;;;;;;2.33;91.06;97843.53;7253947;40;20660;31
2023/12/01 14:53:58;;;;;;;;;;;;;;;2.22;91.71;97845.44;7305645;39;20015;31
2023/12/01 14:59:18;;;;;;;;;;;;;;;2.21;91.78;97853.53;7315059;39;20074;31
2023/12/01 15:04:55;;;;;;;;;;;;;;;2.24;91.40;97853.25;7285782;39;20403;31
2023/12/01 15:10:16;;;;;;;;;;;;;;;2.20;90.94;97851.87;7297834;39;20054;31
2023/12/01 15:15:36;;;;;;;;;;;;;;;2.17;91.43;97834.41;7278434;39;20556;31
2023/12/01 15:21:12;;;;;;;;;;;;;;;2.17;91.68;97839.72;7267691;40;20507;31
2023/12/01 15:26:32;;;;;;;;;;;;;;;2.20;90.35;97835.91;7217252;40;20481;31
2023/12/01 15:31:52;;;;;;;;;;;;;;;2.11;91.07;97829.66;7284598;40;20545;31
2023/12/01 15:37:25;;;;;;;;;;;;;;;2.14;90.55;97809.97;7272209;39;20615;31
2023/12/01 15:42:59;;;;;;;;;;;;;;;2.08;90.77;97814.03;7246366;40;19993;31
2023/12/01 15:48:35;;;;;;;;;;;;;;;2.07;90.48;97836.25;7238946;40;20005;31
2023/12/01 15:54:12;;;;;;;;;;;;;;;2.13;90.33;97826.88;7218831;40;20453;31
2023/12/01 15:59:33;;;;;;;;;;;;;;;2.07;89.83;97822.97;7213237;40;19998;31
2023/12/01 16:05:08;;;;;;;;;;;;;;;2.09;91.41;97833.47;7240684;40;20008;31
2023/12/01 16:10:46;;;;;;;;;;;;;;;2.02;91.00;97843.84;7186815;40;20473;31
2023/12/01 16:16:22;;;;;;;;;;;;;;;1.95;90.73;97852.53;7258744;40;20432;31
2023/12/01 16:21:43;;;;;;;;;;;;;;;1.94;91.40;97856.19;7208362;40;20008;31
2023/12/01 16:27:20;;;;;;;;;;;;;;;1.94;90.92;97856.19;7168289;40;20213;31
2023/12/01 16:32:38;;;;;;;;;;;;;;;1.93;90.17;97862.50;7131533;40;20056;31
2023/12/01 16:38:11;;;;;;;;;;;;;;;2.00;91.05;97867.06;7218529;40;20044;31
2023/12/01 16:43:45;;;;;;;;;;;;;;;1.95;89.79;97855.19;7184774;40;19994;31
2023/12/01 16:49:05;;;;;;;;;;;;;;;1.81;90.64;97854.69;7215617;40;21220;31
2023/12/01 16:54:23;;;;;;;;;;;;;;;1.84;90.48;97864.22;7237998;40;20068;31
2023/12/01 16:59:59;;;;;;;;;;;;;;;1.79;90.85;97851.34;7259158;40;19996;31
2023/12/01 17:05:34;;;;;;;;;;;;;;;1.82;90.97;97844.91;7276493;40;20031;31
2023/12/01 17:16:15;;;;;;;;;;;;;;;1.70;91.21;97859.34;7317117;39;20003;31
2023/12/01 17:21:48;;;;;;;;;;;;;;;1.70;90.83;97862.84;7277689;39;20555;31
2023/12/01 17:27:23;;;;;;;;;;;;;;;1.69;91.77;97866.47;7202863;40;19998;31
2023/12/01 17:32:57;;;;;;;;;;;;;;;1.68;91.37;97872.75;7191632;40;20532;31
2023/12/01 17:38:20;;;;;;;;;;;;;;;1.74;91.93;97874.84;7207996;40;19993;31
2023/12/01 17:43:40;;;;;;;;;;;;;;;1.72;91.24;97868.84;7230753;40;19993;31
2023/12/01 17:49:10;;;;;;;;;;;;;;;1.65;92.22;97867.75;7222253;40;20046;31
2023/12/01 17:54:46;;;;;;;;;;;;;;;1.66;92.08;97865.94;7246907;40;20065;31
2023/12/01 18:00:24;;;;;;;;;;;;;;;1.65;92.07;97881.03;7261049;40;20463;31
2023/12/01 18:06:01;;;;;;;;;;;;;;;1.63;92.19;97898.91;7009155;40;20054;31
2023/12/01 18:11:23;;;;;;;;;;;;;;;1.63;92.46;97901.56;7214095;40;20563;31
2023/12/01 18:16:55;;;;;;;;;;;;;;;1.70;92.13;97899.19;7256739;40;20873;31
2023/12/01 18:22:30;;;;;;;;;;;;;;;1.61;92.42;97916.81;7228928;40;19993;31
2023/12/01 18:28:05;;;;;;;;;;;;;;;1.60;91.76;97911.63;7265459;40;20534;31
2023/12/01 18:33:27;;;;;;;;;;;;;;;1.59;92.04;97897.53;7269753;40;20090;31
2023/12/01 18:39:03;;;;;;;;;;;;;;;1.54;92.24;97894.44;7313364;39;20533;31
2023/12/01 18:44:24;;;;;;;;;;;;;;;1.54;92.37;97889.13;7232243;40;20184;31
2023/12/01 18:49:44;;;;;;;;;;;;;;;1.53;91.70;97884.00;7246737;40;20167;31
2023/12/01 18:55:21;;;;;;;;;;;;;;;1.56;92.33;97878.38;7268482;40;20447;31
2023/12/01 19:00:42;;;;;;;;;;;;;;;1.49;92.20;97894.06;7326802;39;20099;31
2023/12/01 19:06:17;;;;;;;;;;;;;;;1.51;91.78;97899.22;7328126;39;20115;31
2023/12/01 19:11:55;;;;;;;;;;;;;;;1.44;91.67;97898.97;7298430;39;20093;31
2023/12/01 19:17:31;;;;;;;;;;;;;;;1.52;91.64;97903.56;7257255;40;19993;31
2023/12/01 19:22:52;;;;;;;;;;;;;;;1.51;91.31;97894.75;7209679;40;19993;31
2023/12/01 19:28:25;;;;;;;;;;;;;;;1.56;91.86;97891.66;7220304;40;20625;31
2023/12/01 19:33:44;;;;;;;;;;;;;;;1.55;91.17;97897.94;7217034;40;19993;31
2023/12/01 19:39:02;;;;;;;;;;;;;;;1.53;90.89;97891.97;7234104;40;19997;31
2023/12/01 19:44:35;;;;;;;;;;;;;;;1.48;90.85;97887.06;7270339;40;20115;31
2023/12/01 19:49:55;;;;;;;;;;;;;;;1.43;90.70;97894.62;7252136;39;20178;31
2023/12/01 19:55:30;;;;;;;;;;;;;;;1.50;90.97;97905.50;7307322;39;20028;31
2023/12/01 20:01:04;;;;;;;;;;;;;;;1.52;90.80;97932.75;7248998;40;20055;31
2023/12/01 20:11:29;;;;;;;;;;;;;;;1.54;90.29;97926.31;7229936;40;20016;31
2023/12/01 20:22:07;;;;;;;;;;;;;;;1.52;90.06;97925.63;7228084;39;20491;31
2023/12/01 20:32:30;;;;;;;;;;;;;;;1.48;90.27;97941.97;7297980;39;20004;31
2023/12/01 20:38:03;;;;;;;;;;;;;;;1.47;89.74;97932.34;7257736;39;20499;31
2023/12/01 20:48:29;;;;;;;;;;;;;;;1.44;89.93;97911.38;7298139;39;20661;31
2023/12/01 20:59:08;;;;;;;;;;;;;;;1.41;90.05;97930.22;7306430;39;20083;31
2023/12/01 21:09:33;;;;;;;;;;;;;;;1.39;89.56;97937.50;7226984;40;20005;31
2023/12/01 21:15:10;;;;;;;;;;;;;;;1.34;89.63;97943.25;7299361;40;20766;31
2023/12/01 21:25:35;;;;;;;;;;;;;;;1.29;89.77;97943.66;7337772;39;20496;31
2023/12/01 21:36:16;;;;;;;;;;;;;;;1.25;89.99;97942.25;7322736;39;20027;31
2023/12/01 21:46:55;;;;;;;;;;;;;;;1.23;90.53;97928.28;7310198;39;20571;31
2023/12/01 21:57:36;;;;;;;;;;;;;;;1.21;91.29;97919.63;7326035;39;20003;31
2023/12/01 22:08:00;;;;;;;;;;;;;;;1.14;91.77;97920.34;7336913;39;20015;31
2023/12/01 22:13:36;;;;;;;;;;;;;;;1.17;91.68;97933.31;7315032;39;20451;31
2023/12/01 22:24:16;;;;;;;;;;;;;;;1.09;91.15;97928.72;7275128;40;20090;31
2023/12/01 22:34:57;;;;;;;;;;;;;;;1.01;91.71;97922.44;7244858;40;20024;31
2023/12/01 22:40:38;;;;;;;;;;;;;;;0.95;91.70;97937.06;7237446;40;19993;31
2023/12/01 22:45:56;;;;;;;;;;;;;;;0.89;92.04;97943.75;7227817;40;19993;31
2023/12/01 22:51:28;;;;;;;;;;;;;;;0.89;91.83;97954.38;7257407;40;20038;31
2023/12/01 22:57:00;;;;;;;;;;;;;;;0.90;91.79;97947.25;7203998;40;20080;31
2023/12/01 23:02:31;;;;;;;;;;;;;;;0.92;91.82;97947.12;7184876;40;20219;31
2023/12/01 23:08:04;;;;;;;;;;;;;;;0.83;91.37;97957.56;7168796;40;20456;31
2023/12/01 23:13:26;;;;;;;;;;;;;;;0.87;91.13;97951.03;7167763;40;20034;31
2023/12/01 23:18:47;;;;;;;;;;;;;;;0.97;91.28;97969.59;7195503;40;19994;31
2023/12/01 23:24:24;;;;;;;;;;;;;;;0.90;90.91;97974.63;7220584;40;20060;31
2023/12/01 23:29:46;;;;;;;;;;;;;;;0.84;91.07;97964.53;7207860;40;19992;31
2023/12/01 23:35:18;;;;;;;;;;;;;;;0.85;90.88;97971.53;7226373;40;20439;31
2023/12/01 23:40:54;;;;;;;;;;;;;;;0.84;90.27;97977.81;7261289;39;20546;31
2023/12/01 23:46:29;;;;;;;;;;;;;;;0.83;90.66;97959.41;7244021;39;20604;31
2023/12/01 23:52:04;;;;;;;;;;;;;;;0.84;90.61;97953.94;7244332;40;20017;31
2023/12/01 23:57:41;;;;;;;;;;;;;;;0.87;90.19;97956.34;7228049;40;20497;31
